Time;durP1;ratioP1;P1;durP2;ratioP2;P2;SDS_P1;SDS_P2;PMS_P1;PMS_P2;Temp;Humidity;BMP_temperature;BMP_pressure;BME280_temperature;BME280_humidity;BME280_pressure;Samples;Min_cycle;Max_cycle;Signal;HPM_P1;HPM_P2
2021/06/20 00:01:33;;;;;;;122.50;49.45;;;16.50;99.90;;;;;;5040967;28;20475;-66
2021/06/20 00:03:59;;;;;;;102.82;46.15;;;16.50;99.90;;;;;;5045030;28;20033;-65
2021/06/20 00:06:35;;;;;;;113.43;46.83;;;16.50;99.90;;;;;;5043748;28;20098;-65
2021/06/20 00:09:05;;;;;;;96.55;44.67;;;16.40;99.90;;;;;;5038622;28;20436;-66
2021/06/20 00:11:31;;;;;;;109.95;46.05;;;16.50;99.90;;;;;;5033632;28;20032;-65
2021/06/20 00:13:57;;;;;;;103.45;45.85;;;16.40;99.90;;;;;;5036704;28;20052;-66
2021/06/20 00:16:23;;;;;;;91.57;43.08;;;16.50;99.90;;;;;;5053296;28;20083;-67
2021/06/20 00:18:50;;;;;;;102.03;44.70;;;16.50;99.90;;;;;;5049474;28;20308;-66
2021/06/20 00:21:15;;;;;;;101.13;43.08;;;16.50;99.90;;;;;;5049479;28;20036;-66
2021/06/20 00:23:41;;;;;;;96.65;43.78;;;16.50;99.90;;;;;;5048353;28;20029;-68
2021/06/20 00:26:06;;;;;;;104.10;45.80;;;16.50;99.90;;;;;;5046658;28;20057;-68
2021/06/20 00:28:32;;;;;;;100.32;43.60;;;16.50;99.90;;;;;;5048873;28;20116;-67
2021/06/20 00:30:58;;;;;;;105.45;45.05;;;16.50;99.90;;;;;;5037342;28;20062;-67
2021/06/20 00:33:24;;;;;;;98.97;42.42;;;16.50;99.90;;;;;;5045876;28;20230;-68
2021/06/20 00:35:50;;;;;;;99.88;42.25;;;16.60;99.90;;;;;;5041851;28;20029;-65
2021/06/20 00:38:15;;;;;;;105.60;43.20;;;16.50;99.90;;;;;;5046700;28;20075;-67
2021/06/20 00:40:41;;;;;;;103.88;43.45;;;16.60;99.90;;;;;;5045962;28;20017;-70
2021/06/20 00:43:07;;;;;;;98.72;41.72;;;16.60;99.90;;;;;;5046361;28;20487;-67
2021/06/20 00:45:33;;;;;;;91.20;40.35;;;16.60;99.90;;;;;;5047303;28;20021;-69
2021/06/20 00:47:59;;;;;;;105.53;39.42;;;16.60;99.90;;;;;;5043916;28;20263;-67
2021/06/20 00:50:26;;;;;;;100.70;40.47;;;16.60;99.90;;;;;;5039733;28;20029;-68
2021/06/20 00:52:55;;;;;;;80.13;37.30;;;16.60;99.90;;;;;;5039328;28;20380;-69
2021/06/20 00:55:21;;;;;;;80.63;35.85;;;16.70;99.90;;;;;;5041325;28;20018;-68
2021/06/20 00:57:47;;;;;;;90.85;37.38;;;16.70;99.90;;;;;;5049503;28;20134;-68
2021/06/20 01:00:13;;;;;;;72.60;35.40;;;16.80;99.90;;;;;;5049740;28;20025;-68
2021/06/20 01:02:39;;;;;;;78.25;36.05;;;16.90;99.90;;;;;;5056542;28;20029;-68
2021/06/20 01:05:08;;;;;;;66.85;32.55;;;17.00;99.90;;;;;;5049100;28;20449;-66
2021/06/20 01:07:35;;;;;;;64.82;31.88;;;16.90;99.90;;;;;;5048550;28;20029;-66
2021/06/20 01:10:01;;;;;;;70.82;30.92;;;16.70;99.90;;;;;;5047395;28;20043;-67
2021/06/20 01:12:27;;;;;;;65.82;31.70;;;16.60;99.90;;;;;;5048325;28;20037;-65
2021/06/20 01:14:52;;;;;;;59.80;31.38;;;16.70;99.90;;;;;;5048251;28;20075;-66
2021/06/20 01:17:20;;;;;;;63.22;29.52;;;16.70;99.90;;;;;;5044818;28;20032;-66
2021/06/20 01:19:46;;;;;;;74.90;34.00;;;16.60;99.90;;;;;;5046559;28;20053;-66
2021/06/20 01:22:30;;;;;;;73.05;34.95;;;16.70;99.90;;;;;;5047801;28;20032;-66
2021/06/20 01:25:03;;;;;;;70.63;35.40;;;16.70;99.90;;;;;;5045459;28;20314;-65
2021/06/20 01:27:34;;;;;;;84.03;35.28;;;16.80;99.90;;;;;;5044555;28;20031;-66
2021/06/20 01:30:03;;;;;;;71.80;31.63;;;16.80;99.90;;;;;;5047219;28;20036;-67
2021/06/20 01:32:30;;;;;;;49.42;21.33;;;16.80;99.90;;;;;;5047708;28;20542;-65
2021/06/20 01:34:56;;;;;;;41.17;19.02;;;16.70;99.90;;;;;;5042710;28;20040;-67
2021/06/20 01:37:22;;;;;;;30.85;15.00;;;16.60;99.90;;;;;;5045339;28;20499;-66
2021/06/20 01:39:47;;;;;;;16.25;9.65;;;16.60;99.90;;;;;;5050205;28;20071;-69
2021/06/20 01:42:15;;;;;;;17.88;8.50;;;16.40;99.90;;;;;;5043595;28;20550;-67
2021/06/20 01:44:50;;;;;;;9.48;6.68;;;16.40;99.90;;;;;;5049068;28;20074;-63
2021/06/20 01:47:18;;;;;;;10.60;5.72;;;16.30;99.90;;;;;;5041843;28;20044;-65
2021/06/20 01:49:44;;;;;;;11.95;6.93;;;16.20;99.90;;;;;;5045724;28;20325;-66
2021/06/20 01:52:10;;;;;;;9.85;6.75;;;16.30;99.90;;;;;;5046144;28;20390;-65
2021/06/20 01:54:37;;;;;;;9.32;5.82;;;16.20;99.90;;;;;;5047603;28;20033;-66
2021/06/20 01:57:06;;;;;;;9.60;4.90;;;16.10;99.90;;;;;;5047055;28;20025;-66
2021/06/20 01:59:31;;;;;;;6.18;4.57;;;16.00;99.90;;;;;;5036355;28;20074;-67
2021/06/20 02:01:57;;;;;;;9.32;5.57;;;16.00;99.90;;;;;;5039677;28;20032;-68
2021/06/20 02:04:22;;;;;;;12.02;6.50;;;16.00;99.90;;;;;;5048275;28;20036;-66
2021/06/20 02:06:48;;;;;;;9.50;6.13;;;15.90;99.90;;;;;;5052610;28;20217;-66
2021/06/20 02:09:14;;;;;;;11.38;6.53;;;15.90;99.90;;;;;;5030386;28;20017;-67
2021/06/20 02:11:40;;;;;;;11.75;6.63;;;15.90;99.90;;;;;;5042991;28;20067;-65
2021/06/20 02:14:05;;;;;;;9.45;6.40;;;15.90;99.90;;;;;;5035313;28;20052;-66
2021/06/20 02:16:31;;;;;;;9.07;5.97;;;15.80;99.90;;;;;;5043781;28;20079;-65
2021/06/20 02:18:56;;;;;;;10.95;6.78;;;15.80;99.90;;;;;;5043476;28;20639;-67
2021/06/20 02:21:22;;;;;;;14.07;7.80;;;15.70;99.90;;;;;;5030004;28;20029;-66
2021/06/20 02:23:47;;;;;;;12.20;8.05;;;15.70;99.90;;;;;;5031541;28;20017;-66
2021/06/20 02:26:13;;;;;;;13.60;9.30;;;15.70;99.90;;;;;;5044717;28;20093;-66
2021/06/20 02:28:39;;;;;;;15.70;10.20;;;15.80;99.90;;;;;;5033042;28;20033;-66
2021/06/20 02:31:04;;;;;;;16.42;9.85;;;15.70;99.90;;;;;;5033357;28;20526;-67
2021/06/20 02:33:30;;;;;;;18.00;12.52;;;15.70;99.90;;;;;;5047986;28;20017;-65
2021/06/20 02:35:55;;;;;;;19.20;12.68;;;15.70;99.90;;;;;;5039865;28;20020;-65
2021/06/20 02:38:21;;;;;;;15.13;11.52;;;15.70;99.90;;;;;;5037411;28;20419;-64
2021/06/20 02:40:46;;;;;;;14.60;11.70;;;15.70;99.90;;;;;;5038804;28;20029;-66
2021/06/20 02:43:12;;;;;;;12.98;9.32;;;15.70;99.90;;;;;;5041743;28;20029;-67
2021/06/20 02:45:37;;;;;;;16.23;9.63;;;15.70;99.90;;;;;;5041613;28;20044;-70
2021/06/20 02:48:03;;;;;;;11.90;9.27;;;15.70;99.90;;;;;;5049454;28;20372;-66
2021/06/20 02:50:29;;;;;;;12.70;9.38;;;15.80;99.90;;;;;;5047571;28;20029;-66
2021/06/20 02:52:54;;;;;;;10.27;7.93;;;15.80;99.90;;;;;;5045877;28;20028;-67
2021/06/20 02:55:21;;;;;;;8.23;7.18;;;15.70;99.90;;;;;;5047388;28;20042;-68
2021/06/20 02:57:46;;;;;;;8.63;7.40;;;15.80;99.90;;;;;;5040700;28;20021;-67
2021/06/20 03:00:12;;;;;;;10.05;7.43;;;15.90;99.90;;;;;;5045676;28;20059;-67
2021/06/20 03:02:38;;;;;;;9.27;7.57;;;15.80;99.90;;;;;;5044746;28;20529;-66
2021/06/20 03:05:04;;;;;;;7.78;6.65;;;15.80;99.90;;;;;;5044668;28;20024;-65
2021/06/20 03:07:30;;;;;;;10.18;7.25;;;15.90;99.90;;;;;;5045938;28;20393;-65
2021/06/20 03:09:56;;;;;;;7.95;7.15;;;15.90;99.90;;;;;;5046950;28;20017;-67
2021/06/20 03:12:22;;;;;;;7.72;6.50;;;15.90;99.90;;;;;;5045713;28;20359;-68
2021/06/20 03:14:48;;;;;;;6.93;6.28;;;16.00;99.90;;;;;;5044439;28;20033;-67
2021/06/20 03:17:15;;;;;;;8.00;6.55;;;15.90;99.90;;;;;;5044514;28;20067;-67
2021/06/20 03:19:41;;;;;;;9.55;7.57;;;15.90;99.90;;;;;;5045852;28;20021;-66
2021/06/20 03:22:07;;;;;;;11.68;8.65;;;15.90;99.90;;;;;;5046930;28;20459;-66
2021/06/20 03:24:35;;;;;;;9.52;8.38;;;16.00;99.90;;;;;;5045507;28;20028;-67
2021/06/20 03:27:01;;;;;;;10.55;7.60;;;16.20;99.90;;;;;;5033281;28;20033;-66
2021/06/20 03:29:27;;;;;;;8.23;7.40;;;16.20;99.90;;;;;;5040651;28;20132;-67
2021/06/20 03:31:53;;;;;;;10.23;8.13;;;16.10;99.90;;;;;;5026716;28;20030;-66
2021/06/20 03:34:20;;;;;;;8.70;7.80;;;16.10;99.90;;;;;;5043270;28;20107;-67
2021/06/20 03:36:45;;;;;;;10.02;8.23;;;16.10;99.90;;;;;;5036394;28;20048;-66
2021/06/20 03:39:11;;;;;;;9.30;8.40;;;16.00;99.90;;;;;;5030446;28;20021;-66
2021/06/20 03:41:38;;;;;;;10.25;8.38;;;16.00;99.90;;;;;;5047151;28;20052;-66
2021/06/20 03:44:06;;;;;;;10.07;9.05;;;16.00;99.90;;;;;;5035206;28;20395;-66
2021/06/20 03:46:32;;;;;;;9.75;8.75;;;16.00;99.90;;;;;;5041076;28;20022;-66
2021/06/20 03:48:58;;;;;;;10.40;8.77;;;16.00;99.90;;;;;;5041588;28;20062;-67
2021/06/20 03:51:23;;;;;;;12.70;9.38;;;16.00;99.90;;;;;;5048483;28;20055;-65
2021/06/20 03:53:49;;;;;;;12.82;10.27;;;16.00;99.90;;;;;;5050531;28;20131;-66
2021/06/20 03:56:14;;;;;;;11.75;9.95;;;16.00;99.90;;;;;;5047306;28;20168;-67
2021/06/20 03:58:40;;;;;;;11.48;10.05;;;16.00;99.90;;;;;;5040869;28;20048;-66
2021/06/20 04:01:06;;;;;;;11.07;9.90;;;16.10;99.90;;;;;;5043250;28;20025;-68
2021/06/20 04:03:31;;;;;;;13.27;10.38;;;16.00;99.90;;;;;;5042195;28;20071;-66
2021/06/20 04:05:57;;;;;;;14.30;11.63;;;15.90;99.90;;;;;;5043746;28;20082;-67
2021/06/20 04:08:22;;;;;;;16.48;12.10;;;15.90;99.90;;;;;;5049044;28;20021;-67
2021/06/20 04:10:48;;;;;;;15.93;12.77;;;15.90;99.90;;;;;;5043801;28;20041;-66
2021/06/20 04:13:14;;;;;;;20.90;15.38;;;15.90;99.90;;;;;;5041968;28;20037;-68
2021/06/20 04:15:40;;;;;;;15.30;13.63;;;15.90;99.90;;;;;;5039218;28;20102;-65
2021/06/20 04:18:06;;;;;;;19.98;16.00;;;16.00;99.90;;;;;;5043836;28;20025;-65
2021/06/20 04:20:31;;;;;;;24.33;16.95;;;16.00;99.90;;;;;;5038911;28;20056;-66
2021/06/20 04:22:57;;;;;;;26.17;18.50;;;15.90;99.90;;;;;;5046073;28;20083;-66
2021/06/20 04:25:22;;;;;;;20.35;16.73;;;15.90;99.90;;;;;;5039361;28;20387;-67
2021/06/20 04:27:48;;;;;;;22.30;16.55;;;15.90;99.90;;;;;;5042715;28;20037;-66
2021/06/20 04:30:19;;;;;;;21.35;16.13;;;15.90;99.90;;;;;;5044767;28;20036;-67
2021/06/20 04:32:46;;;;;;;23.73;16.23;;;16.00;99.90;;;;;;5058106;28;20021;-66
2021/06/20 04:35:13;;;;;;;21.17;15.00;;;16.10;99.90;;;;;;5038200;28;20021;-66
2021/06/20 04:37:39;;;;;;;19.35;14.85;;;16.00;99.90;;;;;;5052841;28;20040;-68
2021/06/20 04:40:07;;;;;;;20.38;15.57;;;16.00;99.90;;;;;;5038378;28;20041;-68
2021/06/20 04:42:34;;;;;;;19.77;15.20;;;16.20;99.90;;;;;;5038599;28;20526;-67
2021/06/20 04:45:01;;;;;;;14.45;12.95;;;16.20;99.90;;;;;;5047904;28;20040;-67
2021/06/20 04:47:27;;;;;;;16.85;13.48;;;16.30;99.90;;;;;;5040803;28;20041;-66
2021/06/20 04:49:53;;;;;;;17.98;14.63;;;16.20;99.90;;;;;;5041475;28;20037;-67
2021/06/20 04:52:19;;;;;;;16.25;13.20;;;16.40;99.90;;;;;;5038999;28;20170;-68
2021/06/20 04:54:52;;;;;;;15.70;13.13;;;16.40;99.90;;;;;;5038847;28;20108;-67
2021/06/20 04:57:22;;;;;;;16.10;12.82;;;16.50;99.90;;;;;;5045237;28;20547;-68
2021/06/20 04:59:52;;;;;;;14.80;12.88;;;16.50;99.90;;;;;;5040440;28;20140;-66
2021/06/20 05:02:19;;;;;;;13.65;11.95;;;16.40;99.90;;;;;;5039341;28;20024;-67
2021/06/20 05:04:44;;;;;;;13.07;11.77;;;16.60;99.90;;;;;;5041580;28;20029;-68
2021/06/20 05:07:11;;;;;;;12.68;11.35;;;16.70;99.90;;;;;;5038818;28;20600;-67
2021/06/20 05:09:37;;;;;;;11.05;10.05;;;16.90;99.90;;;;;;5036324;28;20044;-66
2021/06/20 05:12:04;;;;;;;11.45;10.32;;;16.90;99.90;;;;;;5038615;28;20108;-67
2021/06/20 05:14:29;;;;;;;11.45;10.25;;;16.90;99.90;;;;;;5033124;28;20025;-70
2021/06/20 05:16:55;;;;;;;9.77;8.80;;;16.90;99.90;;;;;;5032402;28;20014;-67
2021/06/20 05:19:20;;;;;;;9.65;8.68;;;16.90;99.90;;;;;;5031126;28;20059;-66
2021/06/20 05:21:46;;;;;;;9.93;9.02;;;16.90;99.90;;;;;;5048027;28;20058;-66
2021/06/20 05:24:13;;;;;;;8.20;7.40;;;16.90;99.90;;;;;;5049161;28;20028;-68
2021/06/20 05:26:39;;;;;;;7.32;6.72;;;16.90;99.90;;;;;;5045621;28;20825;-66
2021/06/20 05:29:04;;;;;;;8.38;7.68;;;16.90;99.90;;;;;;5043765;28;20112;-67
2021/06/20 05:31:30;;;;;;;8.10;7.40;;;16.90;99.90;;;;;;5049184;28;20027;-69
2021/06/20 05:33:55;;;;;;;8.15;7.53;;;16.70;99.90;;;;;;5051134;28;20032;-68
2021/06/20 05:36:21;;;;;;;7.65;6.95;;;16.80;99.90;;;;;;5068191;22;20052;-68
2021/06/20 05:38:47;;;;;;;7.82;7.20;;;16.80;99.90;;;;;;5046744;28;20422;-68
2021/06/20 05:41:13;;;;;;;7.80;7.20;;;16.70;99.90;;;;;;5044557;28;20119;-68
2021/06/20 05:43:39;;;;;;;8.15;7.38;;;16.80;99.90;;;;;;5048398;28;20021;-66
2021/06/20 05:46:04;;;;;;;8.63;7.70;;;16.90;99.90;;;;;;5056391;28;20025;-68
2021/06/20 05:48:30;;;;;;;8.00;7.30;;;17.00;99.90;;;;;;5049527;28;20037;-66
2021/06/20 05:50:56;;;;;;;6.45;5.90;;;17.10;99.90;;;;;;5045184;28;20107;-66
2021/06/20 05:53:23;;;;;;;7.97;7.20;;;17.30;99.90;;;;;;5050399;28;20044;-65
2021/06/20 05:55:49;;;;;;;7.05;6.55;;;17.30;99.90;;;;;;5049019;28;20025;-67
2021/06/20 05:58:14;;;;;;;7.18;6.50;;;17.30;99.90;;;;;;5048107;28;20106;-67
2021/06/20 06:00:40;;;;;;;8.73;7.93;;;17.30;99.90;;;;;;5046816;28;20439;-67
2021/06/20 06:03:06;;;;;;;7.13;6.53;;;17.40;99.90;;;;;;5047733;28;20375;-67
2021/06/20 06:05:32;;;;;;;7.38;6.78;;;17.50;99.90;;;;;;5038129;28;20029;-66
2021/06/20 06:07:58;;;;;;;7.32;6.82;;;17.40;99.90;;;;;;5039876;28;20021;-67
2021/06/20 06:10:25;;;;;;;8.52;7.65;;;17.40;99.90;;;;;;5036794;28;20066;-67
2021/06/20 06:12:51;;;;;;;8.45;7.85;;;17.50;99.90;;;;;;5033151;28;20039;-69
2021/06/20 06:15:17;;;;;;;6.95;6.35;;;17.50;99.90;;;;;;5038969;28;20021;-66
2021/06/20 06:17:43;;;;;;;8.82;7.90;;;17.50;99.90;;;;;;5033776;28;20029;-66
2021/06/20 06:20:09;;;;;;;8.52;7.93;;;17.70;99.90;;;;;;5030312;28;20025;-67
2021/06/20 06:22:35;;;;;;;6.65;6.05;;;17.90;99.90;;;;;;5037053;28;20388;-68
2021/06/20 06:25:02;;;;;;;8.70;8.00;;;17.90;99.90;;;;;;5041995;28;20025;-67
2021/06/20 06:27:28;;;;;;;6.55;5.95;;;18.20;99.90;;;;;;5042973;28;20056;-67
2021/06/20 06:29:53;;;;;;;6.82;6.22;;;18.40;99.90;;;;;;5043591;28;20056;-69
2021/06/20 06:32:19;;;;;;;7.25;6.75;;;18.30;99.90;;;;;;5033319;28;20065;-67
2021/06/20 06:34:45;;;;;;;8.10;7.30;;;18.20;99.90;;;;;;5043268;28;20494;-66
2021/06/20 06:37:11;;;;;;;8.85;7.47;;;18.20;99.90;;;;;;5044032;28;20212;-67
2021/06/20 06:39:38;;;;;;;8.98;8.20;;;18.40;99.90;;;;;;5050900;28;20049;-66
2021/06/20 06:42:04;;;;;;;8.95;8.25;;;18.20;99.90;;;;;;5063045;28;20031;-65
2021/06/20 06:44:30;;;;;;;9.88;9.07;;;18.20;99.90;;;;;;5065124;28;20041;-66
2021/06/20 06:46:56;;;;;;;9.68;8.88;;;18.30;99.90;;;;;;5058712;28;20031;-65
2021/06/20 06:49:22;;;;;;;8.73;7.93;;;18.30;99.90;;;;;;5047320;28;20482;-67
2021/06/20 06:51:49;;;;;;;9.57;8.73;;;18.20;99.90;;;;;;5045237;28;20029;-67
2021/06/20 06:54:19;;;;;;;9.07;8.18;;;18.30;99.90;;;;;;5043524;28;21045;-68
2021/06/20 06:56:48;;;;;;;7.65;7.05;;;18.30;99.90;;;;;;5044333;28;20052;-65
2021/06/20 06:59:14;;;;;;;10.07;9.00;;;18.20;99.90;;;;;;5044479;28;21607;-65
2021/06/20 07:01:40;;;;;;;9.80;9.00;;;18.40;99.90;;;;;;5043008;28;20033;-66
2021/06/20 07:04:05;;;;;;;10.75;9.85;;;18.60;99.90;;;;;;5052235;28;20077;-65
2021/06/20 07:06:31;;;;;;;9.20;8.32;;;18.70;99.90;;;;;;5038486;28;20036;-67
2021/06/20 07:08:57;;;;;;;9.07;8.27;;;18.70;99.90;;;;;;5037378;28;20024;-65
2021/06/20 07:11:23;;;;;;;8.98;8.18;;;18.90;99.90;;;;;;5042481;28;20525;-66
2021/06/20 07:13:49;;;;;;;8.77;7.88;;;19.00;99.90;;;;;;5044649;28;20017;-65
2021/06/20 07:16:15;;;;;;;9.13;8.20;;;18.90;99.90;;;;;;5043305;28;20430;-66
2021/06/20 07:18:41;;;;;;;8.65;7.75;;;18.80;99.90;;;;;;5042410;28;20119;-66
2021/06/20 07:21:07;;;;;;;10.90;8.20;;;18.70;99.90;;;;;;5044921;28;20033;-66
2021/06/20 07:23:33;;;;;;;9.32;8.43;;;18.60;99.90;;;;;;5063227;28;20072;-66
2021/06/20 07:25:59;;;;;;;9.55;8.45;;;18.50;99.90;;;;;;5037006;28;20031;-65
2021/06/20 07:28:28;;;;;;;9.52;8.48;;;18.60;99.90;;;;;;5034252;28;20503;-65
2021/06/20 07:30:54;;;;;;;11.02;9.00;;;18.60;99.90;;;;;;5051534;28;20094;-66
2021/06/20 07:33:22;;;;;;;11.40;9.68;;;18.60;99.90;;;;;;5048732;28;20472;-65
2021/06/20 07:35:51;;;;;;;13.02;9.93;;;18.60;99.90;;;;;;5042007;28;20021;-65
2021/06/20 07:38:20;;;;;;;11.85;10.18;;;18.60;99.90;;;;;;5036770;28;20029;-67
2021/06/20 07:40:46;;;;;;;13.15;10.63;;;18.50;99.90;;;;;;5031130;28;20071;-66
2021/06/20 07:43:12;;;;;;;12.68;9.85;;;18.40;99.90;;;;;;5049004;28;20386;-68
2021/06/20 07:45:38;;;;;;;12.38;10.15;;;18.50;99.90;;;;;;5044657;28;20021;-66
2021/06/20 07:48:06;;;;;;;11.65;10.30;;;18.60;99.90;;;;;;5049716;28;20052;-69
2021/06/20 07:50:33;;;;;;;11.18;9.40;;;18.70;99.90;;;;;;5050811;28;20390;-68
2021/06/20 07:52:59;;;;;;;12.77;10.55;;;18.70;99.90;;;;;;5048497;28;20023;-65
2021/06/20 07:55:25;;;;;;;14.10;10.82;;;18.60;99.90;;;;;;5048153;28;20406;-67
2021/06/20 07:57:51;;;;;;;10.77;9.32;;;18.60;99.90;;;;;;5051041;28;20028;-67
2021/06/20 08:00:17;;;;;;;11.73;9.57;;;18.50;99.90;;;;;;5045123;28;20021;-66
2021/06/20 08:02:44;;;;;;;10.75;9.52;;;18.50;99.90;;;;;;5049483;28;20086;-65
2021/06/20 08:05:11;;;;;;;12.00;10.13;;;18.50;99.90;;;;;;5045524;28;20078;-67
2021/06/20 08:07:36;;;;;;;10.02;9.02;;;18.50;99.90;;;;;;5041960;28;20026;-67
2021/06/20 08:10:03;;;;;;;13.75;9.93;;;18.50;99.90;;;;;;5046430;28;20035;-68
2021/06/20 08:12:29;;;;;;;13.52;10.05;;;18.60;99.90;;;;;;5049393;28;20039;-66
2021/06/20 08:14:57;;;;;;;12.85;9.50;;;18.70;99.90;;;;;;5045455;28;20504;-66
2021/06/20 08:17:23;;;;;;;12.13;9.48;;;18.80;99.90;;;;;;5047617;28;20397;-66
2021/06/20 08:19:49;;;;;;;14.98;10.52;;;18.80;99.90;;;;;;5044555;28;20112;-66
2021/06/20 08:22:18;;;;;;;19.80;11.48;;;18.90;99.90;;;;;;5043286;28;20543;-65
2021/06/20 08:24:46;;;;;;;24.73;10.68;;;18.80;99.90;;;;;;5045672;28;20029;-66
2021/06/20 08:27:12;;;;;;;25.88;12.30;;;18.80;99.90;;;;;;5042707;28;20114;-66
2021/06/20 08:29:38;;;;;;;22.92;12.68;;;18.80;99.90;;;;;;5040362;28;20093;-66
2021/06/20 08:32:05;;;;;;;27.95;13.13;;;18.80;99.90;;;;;;5040940;28;20163;-66
2021/06/20 08:34:31;;;;;;;26.83;12.73;;;18.70;99.90;;;;;;5041148;28;20103;-68
2021/06/20 08:36:58;;;;;;;32.50;13.40;;;18.70;99.90;;;;;;5042165;28;20053;-68
2021/06/20 08:39:24;;;;;;;25.88;12.57;;;18.80;99.90;;;;;;5053928;28;20103;-66
2021/06/20 08:41:50;;;;;;;22.48;12.75;;;19.00;99.90;;;;;;5038996;28;20067;-66
2021/06/20 08:44:24;;;;;;;25.50;13.70;;;19.40;99.90;;;;;;5047089;28;20032;-67
2021/06/20 08:46:50;;;;;;;28.75;13.52;;;19.40;99.90;;;;;;5036850;28;20127;-67
2021/06/20 08:49:16;;;;;;;28.25;12.77;;;19.40;99.90;;;;;;5039344;28;20158;-68
2021/06/20 08:51:46;;;;;;;28.40;14.38;;;19.40;99.90;;;;;;5039986;28;20033;-68
2021/06/20 08:54:15;;;;;;;34.03;15.13;;;19.40;99.90;;;;;;5035257;28;20028;-68
2021/06/20 08:56:41;;;;;;;37.30;16.15;;;19.40;99.90;;;;;;5034103;28;20328;-69
2021/06/20 08:59:10;;;;;;;40.65;16.42;;;19.30;99.90;;;;;;5039170;28;20021;-66
2021/06/20 09:01:36;;;;;;;44.97;20.27;;;19.30;99.90;;;;;;5037963;28;20032;-66
2021/06/20 09:04:02;;;;;;;50.58;21.70;;;19.40;99.90;;;;;;5040487;28;20030;-67
2021/06/20 09:06:28;;;;;;;47.38;24.27;;;19.40;99.90;;;;;;5041645;28;20380;-69
2021/06/20 09:08:57;;;;;;;48.55;22.67;;;19.40;99.90;;;;;;5048160;28;20021;-67
2021/06/20 09:11:35;;;;;;;62.25;28.67;;;19.50;99.90;;;;;;5038210;28;20029;-67
2021/06/20 09:14:12;;;;;;;56.00;27.85;;;19.60;99.90;;;;;;5039362;28;20025;-68
2021/06/20 09:16:45;;;;;;;55.90;28.05;;;19.70;99.90;;;;;;5035330;28;20515;-69
2021/06/20 09:19:11;;;;;;;51.30;27.23;;;19.80;99.90;;;;;;5043615;28;20033;-70
2021/06/20 09:21:38;;;;;;;50.60;26.67;;;19.90;99.90;;;;;;5045313;28;20025;-68
2021/06/20 09:24:04;;;;;;;48.90;25.02;;;20.00;99.90;;;;;;5048886;28;20403;-67
2021/06/20 09:26:41;;;;;;;40.30;22.15;;;20.20;99.90;;;;;;5034998;28;20017;-66
2021/06/20 09:29:09;;;;;;;33.42;18.75;;;20.40;99.90;;;;;;5046762;28;20386;-65
2021/06/20 09:31:53;;;;;;;30.60;17.60;;;20.50;99.90;;;;;;5048028;28;20291;-67
2021/06/20 09:34:19;;;;;;;36.05;18.67;;;20.70;99.90;;;;;;5047850;28;20419;-67
2021/06/20 09:36:46;;;;;;;29.77;17.75;;;20.70;99.90;;;;;;5049797;28;20029;-64
2021/06/20 09:39:23;;;;;;;34.42;17.85;;;20.80;99.90;;;;;;5049026;28;20025;-73
2021/06/20 09:42:00;;;;;;;31.20;19.63;;;21.00;99.90;;;;;;5047960;28;20029;-68
2021/06/20 09:44:40;;;;;;;36.20;18.00;;;21.00;99.90;;;;;;5048275;28;20584;-70
2021/06/20 09:47:09;;;;;;;27.45;17.10;;;21.10;99.90;;;;;;5047373;28;20033;-67
2021/06/20 09:49:36;;;;;;;29.70;17.10;;;21.00;99.90;;;;;;5048858;28;20017;-67
2021/06/20 09:52:03;;;;;;;27.38;17.15;;;21.10;99.90;;;;;;5044027;28;20473;-71
2021/06/20 09:54:33;;;;;;;30.17;17.10;;;21.00;99.90;;;;;;5047044;28;20017;-68
2021/06/20 09:57:00;;;;;;;26.88;16.42;;;21.20;99.90;;;;;;5048635;28;20024;-65
2021/06/20 09:59:29;;;;;;;21.52;14.38;;;21.30;99.90;;;;;;5044073;28;20060;-68
2021/06/20 10:02:06;;;;;;;18.52;12.07;;;21.20;99.90;;;;;;5049815;28;20086;-66
2021/06/20 10:04:34;;;;;;;22.77;11.13;;;21.20;99.90;;;;;;5045469;28;20360;-70
2021/06/20 10:07:00;;;;;;;16.63;10.23;;;21.30;99.90;;;;;;5047938;28;20029;-68
2021/06/20 10:09:26;;;;;;;14.18;8.50;;;21.50;99.90;;;;;;5045536;28;20067;-71
2021/06/20 10:11:51;;;;;;;8.05;5.32;;;21.80;99.90;;;;;;5054668;28;20033;-70
2021/06/20 10:14:18;;;;;;;7.18;5.15;;;21.80;99.90;;;;;;5036619;28;20721;-67
2021/06/20 10:16:51;;;;;;;9.10;5.13;;;21.80;99.90;;;;;;5038045;28;20029;-69
2021/06/20 10:19:27;;;;;;;8.90;5.90;;;21.80;99.90;;;;;;5044106;28;20090;-66
2021/06/20 10:22:12;;;;;;;6.07;4.55;;;21.70;99.90;;;;;;5050778;28;20158;-68
2021/06/20 10:24:53;;;;;;;7.07;4.47;;;21.90;99.90;;;;;;5040629;28;20519;-66
2021/06/20 10:27:48;;;;;;;26.95;7.55;;;21.90;99.90;;;;;;5036855;28;20051;-70
2021/06/20 10:30:22;;;;;;;7.63;5.03;;;21.90;99.90;;;;;;5049569;28;20264;-68
2021/06/20 10:32:49;;;;;;;6.53;4.35;;;21.90;99.90;;;;;;5044586;28;20035;-66
2021/06/20 10:35:21;;;;;;;5.03;4.00;;;22.00;99.90;;;;;;5049446;28;20033;-68
2021/06/20 10:37:49;;;;;;;6.22;5.13;;;22.20;99.90;;;;;;5053253;28;20554;-68
2021/06/20 10:40:19;;;;;;;7.55;5.85;;;22.10;99.90;;;;;;5033990;28;20063;-68
2021/06/20 10:42:46;;;;;;;7.22;5.63;;;21.80;99.90;;;;;;5040046;28;20021;-66
2021/06/20 10:45:12;;;;;;;8.13;5.95;;;21.70;99.90;;;;;;5053549;28;20033;-68
2021/06/20 10:47:42;;;;;;;8.98;6.43;;;21.60;99.90;;;;;;5038519;28;20120;-69
2021/06/20 10:50:10;;;;;;;10.88;5.57;;;21.60;99.90;;;;;;5037947;28;20316;-68
2021/06/20 10:52:36;;;;;;;8.32;6.07;;;21.70;99.90;;;;;;5047547;28;20020;-67
2021/06/20 10:55:17;;;;;;;7.03;5.43;;;21.90;99.90;;;;;;5046835;28;20031;-72
2021/06/20 10:57:45;;;;;;;8.48;7.47;;;22.10;99.90;;;;;;5041948;28;20424;-69
2021/06/20 11:00:12;;;;;;;7.32;5.70;;;22.30;99.90;;;;;;5048800;28;20029;-70
2021/06/20 11:02:41;;;;;;;7.57;5.88;;;22.40;99.90;;;;;;5043174;28;20021;-74
2021/06/20 11:05:19;;;;;;;6.38;4.70;;;22.50;99.90;;;;;;5048868;28;20108;-70
2021/06/20 11:07:45;;;;;;;7.40;4.35;;;22.50;99.90;;;;;;5046752;28;20511;-71
2021/06/20 11:10:21;;;;;;;5.50;4.93;;;22.70;99.90;;;;;;5046976;28;20036;-69
2021/06/20 11:12:56;;;;;;;7.70;5.13;;;22.70;99.90;;;;;;5048725;28;20021;-67
2021/06/20 11:15:28;;;;;;;7.50;5.93;;;22.70;99.90;;;;;;5036188;28;20021;-69
2021/06/20 11:18:07;;;;;;;;;;;22.90;99.90;;;;;;5040409;28;20022;-67
2021/06/20 11:20:33;;;;;;;8.65;6.97;;;22.80;99.90;;;;;;5034383;28;20057;-68
2021/06/20 11:23:00;;;;;;;9.43;5.97;;;22.80;99.90;;;;;;5044860;28;20020;-66
2021/06/20 11:25:28;;;;;;;14.05;7.20;;;22.90;99.90;;;;;;5043020;28;20047;-70
2021/06/20 11:27:55;;;;;;;11.55;6.78;;;22.90;99.90;;;;;;5039291;28;20027;-70
2021/06/20 11:30:21;;;;;;;10.43;7.30;;;23.00;99.90;;;;;;5033308;28;20033;-68
2021/06/20 11:32:47;;;;;;;8.32;6.85;;;22.80;99.90;;;;;;5037107;28;20112;-68
2021/06/20 11:35:16;;;;;;;7.80;6.18;;;22.50;99.90;;;;;;5048065;28;20021;-67
2021/06/20 11:37:50;;;;;;;7.75;6.28;;;22.60;99.90;;;;;;5076613;22;20113;-72
2021/06/20 11:40:18;;;;;;;11.68;6.93;;;23.00;99.90;;;;;;5026108;28;20033;-71
2021/06/20 11:42:47;;;;;;;9.55;6.53;;;23.00;99.90;;;;;;5026878;28;20557;-73
2021/06/20 11:45:26;;;;;;;12.18;7.93;;;23.10;99.90;;;;;;5024188;28;20495;-74
2021/06/20 11:47:54;;;;;;;11.10;6.82;;;23.00;99.90;;;;;;5023399;28;20029;-72
2021/06/20 11:50:41;;;;;;;11.90;7.97;;;22.80;99.90;;;;;;5025446;28;20029;-69
2021/06/20 11:53:09;;;;;;;9.98;7.38;;;22.90;99.90;;;;;;5026489;28;20112;-71
2021/06/20 11:55:36;;;;;;;10.98;6.70;;;22.90;99.90;;;;;;5017071;28;20036;-71
2021/06/20 11:58:04;;;;;;;13.93;8.93;;;23.10;99.90;;;;;;5024678;28;20044;-70
2021/06/20 12:00:30;;;;;;;12.23;7.80;;;23.20;99.90;;;;;;5022099;28;20092;-71
2021/06/20 12:03:03;;;;;;;14.05;7.85;;;22.90;99.90;;;;;;5023493;28;20033;-75
2021/06/20 12:05:30;;;;;;;12.73;7.93;;;23.00;99.90;;;;;;5026056;28;20557;-72
2021/06/20 12:08:05;;;;;;;11.82;8.23;;;23.20;99.90;;;;;;5022166;28;20475;-72
2021/06/20 12:10:32;;;;;;;14.88;9.57;;;23.20;99.90;;;;;;5028421;28;20059;-72
2021/06/20 12:13:03;;;;;;;14.70;9.45;;;23.20;99.90;;;;;;5025725;28;20035;-70
2021/06/20 12:15:34;;;;;;;15.13;9.80;;;23.10;99.90;;;;;;5023731;28;20439;-72
2021/06/20 12:18:11;;;;;;;15.55;10.45;;;23.10;99.90;;;;;;5027820;28;20018;-72
2021/06/20 12:20:51;;;;;;;18.20;11.85;;;23.30;99.90;;;;;;5021830;28;20045;-71
2021/06/20 12:23:26;;;;;;;13.82;10.07;;;23.50;99.90;;;;;;5030394;28;20086;-72
2021/06/20 12:25:52;;;;;;;18.27;10.95;;;23.60;99.90;;;;;;5037565;28;20026;-73
2021/06/20 12:28:19;;;;;;;18.08;12.27;;;23.50;99.90;;;;;;5027716;28;20075;-74
2021/06/20 12:30:47;;;;;;;15.60;11.32;;;23.60;99.90;;;;;;5030248;28;20087;-74
2021/06/20 12:33:21;;;;;;;20.70;12.57;;;23.60;99.90;;;;;;5030602;28;20017;-72
2021/06/20 12:35:59;;;;;;;21.33;14.48;;;23.70;99.90;;;;;;5030321;28;20025;-72
2021/06/20 12:38:26;;;;;;;18.92;14.07;;;23.90;99.90;;;;;;5018013;28;20525;-72